sensor_id;sensor_type;location;lat;lon;timestamp;pressure;altitude;pressure_sealevel;temperature;humidity
31483;BME280;18103;52.246;8.052;2023-03-01T00:00:53;101877.13;;;-0.81;72.70
31483;BME280;18103;52.246;8.052;2023-03-01T00:03:18;101885.81;;;-0.82;72.29
31483;BME280;18103;52.246;8.052;2023-03-01T00:05:45;101888.47;;;-0.95;73.52
31483;BME280;18103;52.246;8.052;2023-03-01T00:08:10;101884.06;;;-0.80;72.63
31483;BME280;18103;52.246;8.052;2023-03-01T00:10:36;101873.63;;;-0.76;72.27
31483;BME280;18103;52.246;8.052;2023-03-01T00:13:01;101873.59;;;-0.68;71.73
31483;BME280;18103;52.246;8.052;2023-03-01T00:15:27;101867.56;;;-0.73;71.54
31483;BME280;18103;52.246;8.052;2023-03-01T00:17:52;101871.94;;;-0.75;71.79
31483;BME280;18103;52.246;8.052;2023-03-01T00:20:18;101872.75;;;-0.70;72.56
31483;BME280;18103;52.246;8.052;2023-03-01T00:22:43;101872.81;;;-0.78;71.69
31483;BME280;18103;52.246;8.052;2023-03-01T00:25:09;101870.16;;;-0.68;71.05
31483;BME280;18103;52.246;8.052;2023-03-01T00:27:34;101877.25;;;-1.00;72.84
31483;BME280;18103;52.246;8.052;2023-03-01T00:29:59;101878.13;;;-1.04;73.03
31483;BME280;18103;52.246;8.052;2023-03-01T00:32:25;101879.88;;;-1.06;72.71
31483;BME280;18103;52.246;8.052;2023-03-01T00:34:50;101879.88;;;-1.11;73.24
31483;BME280;18103;52.246;8.052;2023-03-01T00:37:25;101888.50;;;-1.04;72.95
31483;BME280;18103;52.246;8.052;2023-03-01T00:39:50;101882.41;;;-0.97;72.74
31483;BME280;18103;52.246;8.052;2023-03-01T00:42:16;101892.81;;;-1.01;72.70
31483;BME280;18103;52.246;8.052;2023-03-01T00:44:42;101880.72;;;-1.04;72.71
31483;BME280;18103;52.246;8.052;2023-03-01T00:47:08;101887.69;;;-1.14;73.29
31483;BME280;18103;52.246;8.052;2023-03-01T00:49:33;101887.66;;;-1.09;72.88
31483;BME280;18103;52.246;8.052;2023-03-01T00:51:59;101887.72;;;-1.20;73.10
31483;BME280;18103;52.246;8.052;2023-03-01T00:54:24;101881.69;;;-1.17;72.97
31483;BME280;18103;52.246;8.052;2023-03-01T00:56:50;101879.09;;;-1.24;73.33
31483;BME280;18103;52.246;8.052;2023-03-01T00:59:15;101874.81;;;-1.32;73.62
31483;BME280;18103;52.246;8.052;2023-03-01T01:01:41;101880.78;;;-1.16;73.96
31483;BME280;18103;52.246;8.052;2023-03-01T01:04:09;101885.13;;;-1.20;73.50
31483;BME280;18103;52.246;8.052;2023-03-01T01:06:40;101875.63;;;-1.21;72.85
31483;BME280;18103;52.246;8.052;2023-03-01T01:09:08;101881.78;;;-1.44;73.60
31483;BME280;18103;52.246;8.052;2023-03-01T01:11:35;101869.63;;;-1.31;72.87
31483;BME280;18103;52.246;8.052;2023-03-01T01:14:02;101868.84;;;-1.51;73.92
31483;BME280;18103;52.246;8.052;2023-03-01T01:16:29;101861.03;;;-1.41;74.05
31483;BME280;18103;52.246;8.052;2023-03-01T01:18:55;101863.66;;;-1.44;74.15
31483;BME280;18103;52.246;8.052;2023-03-01T01:21:23;101861.06;;;-1.51;74.39
31483;BME280;18103;52.246;8.052;2023-03-01T01:23:49;101853.22;;;-1.34;73.68
31483;BME280;18103;52.246;8.052;2023-03-01T01:26:23;101854.97;;;-1.32;73.38
31483;BME280;18103;52.246;8.052;2023-03-01T01:28:50;101860.94;;;-1.14;72.82
31483;BME280;18103;52.246;8.052;2023-03-01T01:31:15;101851.47;;;-1.26;72.33
31483;BME280;18103;52.246;8.052;2023-03-01T01:33:41;101852.41;;;-1.44;73.75
31483;BME280;18103;52.246;8.052;2023-03-01T01:36:07;101851.50;;;-1.32;73.56
31483;BME280;18103;52.246;8.052;2023-03-01T01:38:34;101848.94;;;-1.34;73.48
31483;BME280;18103;52.246;8.052;2023-03-01T01:41:01;101842.00;;;-1.32;72.89
31483;BME280;18103;52.246;8.052;2023-03-01T01:43:33;101842.00;;;-1.32;73.38
31483;BME280;18103;52.246;8.052;2023-03-01T01:46:25;101836.94;;;-1.52;74.14
31483;BME280;18103;52.246;8.052;2023-03-01T01:49:01;101836.09;;;-1.60;74.64
31483;BME280;18103;52.246;8.052;2023-03-01T01:51:32;101834.34;;;-1.58;74.29
31483;BME280;18103;52.246;8.052;2023-03-01T01:54:07;101838.69;;;-1.69;74.84
31483;BME280;18103;52.246;8.052;2023-03-01T01:56:34;101843.00;;;-1.59;74.52
31483;BME280;18103;52.246;8.052;2023-03-01T01:59:02;101833.47;;;-1.56;73.97
31483;BME280;18103;52.246;8.052;2023-03-01T02:01:27;101829.16;;;-1.58;74.91
31483;BME280;18103;52.246;8.052;2023-03-01T02:03:53;101824.88;;;-1.58;74.25
31483;BME280;18103;52.246;8.052;2023-03-01T02:06:27;101832.69;;;-1.73;74.59
31483;BME280;18103;52.246;8.052;2023-03-01T02:08:56;101826.66;;;-1.78;75.57
31483;BME280;18103;52.246;8.052;2023-03-01T02:11:23;101836.13;;;-1.71;74.93
31483;BME280;18103;52.246;8.052;2023-03-01T02:13:49;101824.94;;;-1.84;74.85
31483;BME280;18103;52.246;8.052;2023-03-01T02:16:16;101835.28;;;-1.81;75.08
31483;BME280;18103;52.246;8.052;2023-03-01T02:18:42;101826.66;;;-1.75;75.40
31483;BME280;18103;52.246;8.052;2023-03-01T02:21:35;101823.22;;;-1.80;74.93
31483;BME280;18103;52.246;8.052;2023-03-01T02:26:42;101816.31;;;-1.87;74.73
31483;BME280;18103;52.246;8.052;2023-03-01T02:29:10;101812.03;;;-1.93;75.37
31483;BME280;18103;52.246;8.052;2023-03-01T02:31:35;101811.19;;;-1.95;75.20
31483;BME280;18103;52.246;8.052;2023-03-01T02:34:09;101818.09;;;-2.03;75.53
31483;BME280;18103;52.246;8.052;2023-03-01T02:36:43;101814.63;;;-1.95;75.41
31483;BME280;18103;52.246;8.052;2023-03-01T02:39:13;101817.22;;;-1.92;74.72
31483;BME280;18103;52.246;8.052;2023-03-01T02:41:47;101821.50;;;-1.91;74.62
31483;BME280;18103;52.246;8.052;2023-03-01T02:44:15;101818.91;;;-1.89;74.69
31483;BME280;18103;52.246;8.052;2023-03-01T02:46:46;101825.84;;;-1.93;74.77
31483;BME280;18103;52.246;8.052;2023-03-01T02:54:46;101808.63;;;-2.00;75.01
31483;BME280;18103;52.246;8.052;2023-03-01T02:57:13;101812.09;;;-2.18;75.26
31483;BME280;18103;52.246;8.052;2023-03-01T02:59:40;101812.97;;;-2.20;75.37
31483;BME280;18103;52.246;8.052;2023-03-01T03:02:19;101812.09;;;-2.18;75.80
31483;BME280;18103;52.246;8.052;2023-03-01T03:04:46;101806.94;;;-2.29;76.19
31483;BME280;18103;52.246;8.052;2023-03-01T03:07:11;101807.81;;;-2.24;75.78
31483;BME280;18103;52.246;8.052;2023-03-01T03:09:37;101810.38;;;-2.28;75.97
31483;BME280;18103;52.246;8.052;2023-03-01T03:12:02;101806.94;;;-2.24;75.78
31483;BME280;18103;52.246;8.052;2023-03-01T03:14:28;101807.81;;;-2.24;76.05
31483;BME280;18103;52.246;8.052;2023-03-01T03:16:53;101800.88;;;-2.11;75.47
31483;BME280;18103;52.246;8.052;2023-03-01T03:19:19;101801.72;;;-2.04;75.42
31483;BME280;18103;52.246;8.052;2023-03-01T03:21:45;101799.13;;;-2.01;75.33
31483;BME280;18103;52.246;8.052;2023-03-01T03:24:10;101789.69;;;-2.22;75.63
31483;BME280;18103;52.246;8.052;2023-03-01T03:26:36;101796.53;;;-2.09;75.28
31483;BME280;18103;52.246;8.052;2023-03-01T03:29:02;101798.31;;;-2.26;75.97
31483;BME280;18103;52.246;8.052;2023-03-01T03:31:27;101800.91;;;-2.15;76.21
31483;BME280;18103;52.246;8.052;2023-03-01T03:33:53;101795.69;;;-2.09;75.40
31483;BME280;18103;52.246;8.052;2023-03-01T03:36:21;101804.38;;;-2.32;76.72
31483;BME280;18103;52.246;8.052;2023-03-01T03:38:47;101809.56;;;-2.35;77.10
31483;BME280;18103;52.246;8.052;2023-03-01T03:41:14;101811.25;;;-2.32;76.45
31483;BME280;18103;52.246;8.052;2023-03-01T03:43:42;101805.22;;;-2.27;76.45
31483;BME280;18103;52.246;8.052;2023-03-01T03:46:10;101801.78;;;-2.19;75.98
31483;BME280;18103;52.246;8.052;2023-03-01T03:48:42;101795.72;;;-2.20;75.73
31483;BME280;18103;52.246;8.052;2023-03-01T03:51:16;101789.69;;;-2.31;76.17
31483;BME280;18103;52.246;8.052;2023-03-01T03:53:43;101782.78;;;-2.21;76.38
31483;BME280;18103;52.246;8.052;2023-03-01T03:56:09;101782.78;;;-2.20;75.61
31483;BME280;18103;52.246;8.052;2023-03-01T03:58:35;101781.09;;;-2.33;75.78
31483;BME280;18103;52.246;8.052;2023-03-01T04:01:01;101775.03;;;-2.25;75.90
31483;BME280;18103;52.246;8.052;2023-03-01T04:03:29;101769.00;;;-2.28;75.69
31483;BME280;18103;52.246;8.052;2023-03-01T04:05:57;101764.72;;;-2.40;76.05
31483;BME280;18103;52.246;8.052;2023-03-01T04:08:23;101759.53;;;-2.35;76.12
31483;BME280;18103;52.246;8.052;2023-03-01T04:10:50;101758.69;;;-2.47;75.87
31483;BME280;18103;52.246;8.052;2023-03-01T04:13:19;101764.72;;;-2.49;76.29
31483;BME280;18103;52.246;8.052;2023-03-01T04:15:49;101764.72;;;-2.49;76.01
31483;BME280;18103;52.246;8.052;2023-03-01T04:18:16;101763.03;;;-2.56;76.69
31483;BME280;18103;52.246;8.052;2023-03-01T04:20:43;101757.00;;;-2.55;76.40
31483;BME280;18103;52.246;8.052;2023-03-01T04:23:16;101759.56;;;-2.62;76.80
31483;BME280;18103;52.246;8.052;2023-03-01T04:25:54;101752.69;;;-2.63;76.30
31483;BME280;18103;52.246;8.052;2023-03-01T04:30:50;101763.91;;;-2.54;76.48
31483;BME280;18103;52.246;8.052;2023-03-01T04:33:15;101753.53;;;-2.58;76.02
31483;BME280;18103;52.246;8.052;2023-03-01T04:35:40;101757.00;;;-2.59;76.48
31483;BME280;18103;52.246;8.052;2023-03-01T04:38:06;101763.88;;;-2.39;75.46
31483;BME280;18103;52.246;8.052;2023-03-01T04:40:32;101756.13;;;-2.39;75.69
31483;BME280;18103;52.246;8.052;2023-03-01T04:42:57;101753.56;;;-2.65;77.13
31483;BME280;18103;52.246;8.052;2023-03-01T04:45:23;101747.53;;;-2.60;76.97
31483;BME280;18103;52.246;8.052;2023-03-01T04:47:48;101739.75;;;-2.52;76.04
31483;BME280;18103;52.246;8.052;2023-03-01T04:50:17;101736.28;;;-2.38;75.25
31483;BME280;18103;52.246;8.052;2023-03-01T04:52:46;101739.75;;;-2.36;75.87
31483;BME280;18103;52.246;8.052;2023-03-01T04:55:11;101745.81;;;-2.53;76.46
31483;BME280;18103;52.246;8.052;2023-03-01T04:57:37;101743.22;;;-2.53;75.70
31483;BME280;18103;52.246;8.052;2023-03-01T05:00:05;101736.28;;;-2.48;75.80
31483;BME280;18103;52.246;8.052;2023-03-01T05:02:57;101741.50;;;-2.66;76.48
31483;BME280;18103;52.246;8.052;2023-03-01T05:07:51;101733.69;;;-2.34;75.36
31483;BME280;18103;52.246;8.052;2023-03-01T05:10:16;101735.44;;;-2.39;75.50
31483;BME280;18103;52.246;8.052;2023-03-01T05:12:42;101732.88;;;-2.61;75.78
31483;BME280;18103;52.246;8.052;2023-03-01T05:15:07;101743.22;;;-2.76;77.11
31483;BME280;18103;52.246;8.052;2023-03-01T05:17:33;101747.53;;;-2.69;77.28
31483;BME280;18103;52.246;8.052;2023-03-01T05:19:59;101752.72;;;-2.78;77.56
31483;BME280;18103;52.246;8.052;2023-03-01T05:22:26;101754.44;;;-2.82;77.86
31483;BME280;18103;52.246;8.052;2023-03-01T05:24:51;101758.75;;;-2.68;76.62
31483;BME280;18103;52.246;8.052;2023-03-01T05:27:19;101751.84;;;-2.57;76.06
31483;BME280;18103;52.246;8.052;2023-03-01T05:29:47;101761.31;;;-2.73;77.03
31483;BME280;18103;52.246;8.052;2023-03-01T05:32:13;101751.81;;;-2.62;76.54
31483;BME280;18103;52.246;8.052;2023-03-01T05:34:41;101751.81;;;-2.48;75.71
31483;BME280;18103;52.246;8.052;2023-03-01T05:37:07;101753.56;;;-2.64;76.01
31483;BME280;18103;52.246;8.052;2023-03-01T05:39:33;101755.28;;;-2.49;75.53
31483;BME280;18103;52.246;8.052;2023-03-01T05:42:00;101758.72;;;-2.50;76.00
31483;BME280;18103;52.246;8.052;2023-03-01T05:44:27;101755.28;;;-2.60;76.05
31483;BME280;18103;52.246;8.052;2023-03-01T05:46:53;101756.13;;;-2.51;75.99
31483;BME280;18103;52.246;8.052;2023-03-01T05:49:19;101760.44;;;-2.55;75.07
31483;BME280;18103;52.246;8.052;2023-03-01T05:51:50;101763.91;;;-2.78;76.77
31483;BME280;18103;52.246;8.052;2023-03-01T05:54:16;101764.75;;;-2.82;77.68
31483;BME280;18103;52.246;8.052;2023-03-01T05:56:43;101766.50;;;-2.84;77.71
31483;BME280;18103;52.246;8.052;2023-03-01T05:59:08;101769.06;;;-2.76;76.77
31483;BME280;18103;52.246;8.052;2023-03-01T06:01:35;101763.91;;;-2.78;77.16
31483;BME280;18103;52.246;8.052;2023-03-01T06:04:01;101757.03;;;-2.74;77.75
31483;BME280;18103;52.246;8.052;2023-03-01T06:06:26;101750.09;;;-2.55;75.85
31483;BME280;18103;52.246;8.052;2023-03-01T06:08:52;101747.53;;;-2.73;76.64
31483;BME280;18103;52.246;8.052;2023-03-01T06:11:18;101750.97;;;-2.56;76.28
31483;BME280;18103;52.246;8.052;2023-03-01T06:13:44;101754.41;;;-2.65;75.87
31483;BME280;18103;52.246;8.052;2023-03-01T06:16:10;101747.53;;;-2.60;75.58
31483;BME280;18103;52.246;8.052;2023-03-01T06:18:37;101750.09;;;-2.81;77.22
31483;BME280;18103;52.246;8.052;2023-03-01T06:21:03;101750.13;;;-2.89;77.63
31483;BME280;18103;52.246;8.052;2023-03-01T06:23:29;101745.81;;;-2.64;75.65
31483;BME280;18103;52.246;8.052;2023-03-01T06:25:54;101747.50;;;-2.46;75.05
31483;BME280;18103;52.246;8.052;2023-03-01T06:28:20;101745.81;;;-2.70;75.96
31483;BME280;18103;52.246;8.052;2023-03-01T06:30:45;101744.09;;;-2.89;77.51
31483;BME280;18103;52.246;8.052;2023-03-01T06:33:11;101747.53;;;-2.83;77.47
31483;BME280;18103;52.246;8.052;2023-03-01T06:35:36;101738.91;;;-2.60;76.13
31483;BME280;18103;52.246;8.052;2023-03-01T06:38:03;101742.31;;;-2.43;75.53
31483;BME280;18103;52.246;8.052;2023-03-01T06:40:30;101750.09;;;-2.43;75.94
31483;BME280;18103;52.246;8.052;2023-03-01T06:42:57;101741.47;;;-2.42;76.77
31483;BME280;18103;52.246;8.052;2023-03-01T06:45:22;101749.22;;;-2.37;76.33
31483;BME280;18103;52.246;8.052;2023-03-01T06:47:48;101752.66;;;-2.41;77.32
31483;BME280;18103;52.246;8.052;2023-03-01T06:50:14;101750.91;;;-2.20;77.70
31483;BME280;18103;52.246;8.052;2023-03-01T06:52:40;101736.22;;;-2.12;77.05
31483;BME280;18103;52.246;8.052;2023-03-01T06:55:06;101747.41;;;-2.04;77.08
31483;BME280;18103;52.246;8.052;2023-03-01T06:57:31;101740.47;;;-1.96;76.51
31483;BME280;18103;52.246;8.052;2023-03-01T06:59:56;101741.31;;;-1.92;75.98
31483;BME280;18103;52.246;8.052;2023-03-01T07:02:22;101739.50;;;-1.78;75.21
31483;BME280;18103;52.246;8.052;2023-03-01T07:04:51;101736.06;;;-1.72;75.82
31483;BME280;18103;52.246;8.052;2023-03-01T07:07:17;101729.94;;;-1.59;76.36
31483;BME280;18103;52.246;8.052;2023-03-01T07:09:44;101730.72;;;-1.46;75.43
31483;BME280;18103;52.246;8.052;2023-03-01T07:12:10;101732.34;;;-1.29;75.90
31483;BME280;18103;52.246;8.052;2023-03-01T07:14:35;101731.34;;;-1.10;75.10
31483;BME280;18103;52.246;8.052;2023-03-01T07:17:01;101729.47;;;-0.94;75.34
31483;BME280;18103;52.246;8.052;2023-03-01T07:19:26;101730.19;;;-0.75;74.05
31483;BME280;18103;52.246;8.052;2023-03-01T07:21:51;101730.03;;;-0.58;73.51
31483;BME280;18103;52.246;8.052;2023-03-01T07:24:17;101724.63;;;-0.35;73.06
31483;BME280;18103;52.246;8.052;2023-03-01T07:26:42;101723.47;;;-0.10;72.60
31483;BME280;18103;52.246;8.052;2023-03-01T07:29:09;101725.81;;;0.10;72.92
31483;BME280;18103;52.246;8.052;2023-03-01T07:31:35;101719.69;;;0.17;72.11
31483;BME280;18103;52.246;8.052;2023-03-01T07:34:02;101728.16;;;0.31;72.27
31483;BME280;18103;52.246;8.052;2023-03-01T07:36:27;101727.63;;;0.68;70.82
31483;BME280;18103;52.246;8.052;2023-03-01T07:38:53;101724.84;;;0.81;70.28
31483;BME280;18103;52.246;8.052;2023-03-01T07:41:20;101729.69;;;1.04;69.72
31483;BME280;18103;52.246;8.052;2023-03-01T07:43:46;101726.91;;;1.15;69.24
31483;BME280;18103;52.246;8.052;2023-03-01T07:46:11;101719.50;;;1.42;68.83
31483;BME280;18103;52.246;8.052;2023-03-01T07:48:37;101729.69;;;1.52;67.93
31483;BME280;18103;52.246;8.052;2023-03-01T07:51:04;101721.47;;;1.76;67.51
31483;BME280;18103;52.246;8.052;2023-03-01T07:53:31;101722.84;;;1.94;67.14
31483;BME280;18103;52.246;8.052;2023-03-01T07:56:08;101724.59;;;1.95;66.73
31483;BME280;18103;52.246;8.052;2023-03-01T07:58:35;101732.13;;;2.09;66.80
31483;BME280;18103;52.246;8.052;2023-03-01T08:01:03;101733.72;;;2.14;66.06
31483;BME280;18103;52.246;8.052;2023-03-01T08:03:28;101729.47;;;2.10;66.09
31483;BME280;18103;52.246;8.052;2023-03-01T08:05:54;101726.47;;;2.29;64.39
31483;BME280;18103;52.246;8.052;2023-03-01T08:08:19;101726.09;;;2.46;63.95
31483;BME280;18103;52.246;8.052;2023-03-01T08:10:45;101728.47;;;2.56;63.32
31483;BME280;18103;52.246;8.052;2023-03-01T08:13:10;101727.28;;;2.70;63.13
31483;BME280;18103;52.246;8.052;2023-03-01T08:15:35;101724.44;;;2.81;62.75
31483;BME280;18103;52.246;8.052;2023-03-01T08:18:01;101723.94;;;3.02;61.25
31483;BME280;18103;52.246;8.052;2023-03-01T08:20:26;101716.72;;;3.12;61.56
31483;BME280;18103;52.246;8.052;2023-03-01T08:22:51;101716.34;;;3.28;60.73
31483;BME280;18103;52.246;8.052;2023-03-01T08:25:17;101712.31;;;3.49;60.54
31483;BME280;18103;52.246;8.052;2023-03-01T08:27:42;101712.81;;;3.62;60.59
31483;BME280;18103;52.246;8.052;2023-03-01T08:30:08;101712.09;;;3.56;60.49
31483;BME280;18103;52.246;8.052;2023-03-01T08:32:38;101710.53;;;3.49;60.05
31483;BME280;18103;52.246;8.052;2023-03-01T08:35:04;101709.19;;;3.67;59.90
31483;BME280;18103;52.246;8.052;2023-03-01T08:37:29;101711.59;;;3.75;59.46
31483;BME280;18103;52.246;8.052;2023-03-01T08:39:59;101713.28;;;3.76;59.21
31483;BME280;18103;52.246;8.052;2023-03-01T08:42:25;101710.78;;;4.03;58.52
31483;BME280;18103;52.246;8.052;2023-03-01T08:44:50;101704.50;;;4.10;58.42
31483;BME280;18103;52.246;8.052;2023-03-01T08:47:16;101705.22;;;4.43;57.95
31483;BME280;18103;52.246;8.052;2023-03-01T08:49:41;101698.22;;;4.45;57.69
31483;BME280;18103;52.246;8.052;2023-03-01T08:52:07;101705.38;;;4.39;57.41
31483;BME280;18103;52.246;8.052;2023-03-01T08:54:32;101703.72;;;4.65;58.57
31483;BME280;18103;52.246;8.052;2023-03-01T08:56:57;101703.63;;;4.68;58.08
31483;BME280;18103;52.246;8.052;2023-03-01T08:59:25;101703.88;;;4.87;57.52
31483;BME280;18103;52.246;8.052;2023-03-01T09:01:50;101698.41;;;4.94;57.02
31483;BME280;18103;52.246;8.052;2023-03-01T09:04:16;101699.16;;;4.98;56.97
31483;BME280;18103;52.246;8.052;2023-03-01T09:06:41;101698.69;;;5.12;56.50
31483;BME280;18103;52.246;8.052;2023-03-01T09:09:13;101689.44;;;5.27;56.92
31483;BME280;18103;52.246;8.052;2023-03-01T09:11:40;101683.22;;;5.31;55.96
31483;BME280;18103;52.246;8.052;2023-03-01T09:14:05;101684.63;;;5.40;56.18
31483;BME280;18103;52.246;8.052;2023-03-01T09:16:31;101686.03;;;5.50;56.23
31483;BME280;18103;52.246;8.052;2023-03-01T09:19:01;101675.34;;;5.56;55.03
31483;BME280;18103;52.246;8.052;2023-03-01T09:21:27;101684.63;;;5.65;55.36
31483;BME280;18103;52.246;8.052;2023-03-01T09:23:52;101679.31;;;5.66;56.26
31483;BME280;18103;52.246;8.052;2023-03-01T09:26:20;101687.38;;;5.86;55.01
31483;BME280;18103;52.246;8.052;2023-03-01T09:28:47;101680.34;;;5.86;54.17
31483;BME280;18103;52.246;8.052;2023-03-01T09:31:14;101673.84;;;5.98;54.11
31483;BME280;18103;52.246;8.052;2023-03-01T09:33:40;101670.97;;;6.04;54.12
31483;BME280;18103;52.246;8.052;2023-03-01T09:36:09;101663.13;;;6.04;53.66
31483;BME280;18103;52.246;8.052;2023-03-01T09:38:36;101674.44;;;6.28;52.75
31483;BME280;18103;52.246;8.052;2023-03-01T09:41:01;101671.16;;;6.45;53.39
31483;BME280;18103;52.246;8.052;2023-03-01T09:43:45;101665.72;;;6.50;53.20
31483;BME280;18103;52.246;8.052;2023-03-01T09:46:14;101659.88;;;6.21;52.33
31483;BME280;18103;52.246;8.052;2023-03-01T09:48:52;101660.59;;;6.47;53.09
31483;BME280;18103;52.246;8.052;2023-03-01T09:51:31;101655.19;;;6.06;52.80
31483;BME280;18103;52.246;8.052;2023-03-01T09:53:57;101658.09;;;6.44;52.54
31483;BME280;18103;52.246;8.052;2023-03-01T10:01:50;101651.00;;;6.68;50.55
31483;BME280;18103;52.246;8.052;2023-03-01T10:04:44;101659.06;;;6.41;51.30
31483;BME280;18103;52.246;8.052;2023-03-01T10:07:42;101651.38;;;6.59;50.46
31483;BME280;18103;52.246;8.052;2023-03-01T10:10:23;101648.00;;;6.77;50.01
31483;BME280;18103;52.246;8.052;2023-03-01T10:12:52;101652.25;;;6.80;49.04
31483;BME280;18103;52.246;8.052;2023-03-01T10:15:25;101651.47;;;6.78;49.75
31483;BME280;18103;52.246;8.052;2023-03-01T10:18:03;101657.34;;;6.62;49.25
31483;BME280;18103;52.246;8.052;2023-03-01T10:23:08;101647.59;;;6.66;48.90
31483;BME280;18103;52.246;8.052;2023-03-01T10:28:06;101633.66;;;6.86;50.01
31483;BME280;18103;52.246;8.052;2023-03-01T10:30:37;101646.97;;;6.81;49.69
31483;BME280;18103;52.246;8.052;2023-03-01T10:33:29;101643.41;;;7.03;48.63
31483;BME280;18103;52.246;8.052;2023-03-01T10:35:56;101634.56;;;7.06;48.62
31483;BME280;18103;52.246;8.052;2023-03-01T10:38:21;101631.00;;;7.27;49.44
31483;BME280;18103;52.246;8.052;2023-03-01T10:40:56;101631.06;;;7.26;48.92
31483;BME280;18103;52.246;8.052;2023-03-01T10:43:28;101627.44;;;7.49;49.07
31483;BME280;18103;52.246;8.052;2023-03-01T10:45:57;101618.25;;;7.39;47.54
31483;BME280;18103;52.246;8.052;2023-03-01T10:48:24;101617.00;;;7.47;49.61
31483;BME280;18103;52.246;8.052;2023-03-01T10:53:23;101622.06;;;7.71;47.15
31483;BME280;18103;52.246;8.052;2023-03-01T10:56:01;101624.53;;;7.74;49.62
31483;BME280;18103;52.246;8.052;2023-03-01T10:58:29;101624.78;;;7.69;46.63
31483;BME280;18103;52.246;8.052;2023-03-01T11:01:04;101625.66;;;7.29;47.68
31483;BME280;18103;52.246;8.052;2023-03-01T11:03:38;101632.97;;;8.00;47.99
31483;BME280;18103;52.246;8.052;2023-03-01T11:08:47;101633.16;;;8.33;47.37
31483;BME280;18103;52.246;8.052;2023-03-01T11:13:50;101634.53;;;8.23;46.09
31483;BME280;18103;52.246;8.052;2023-03-01T11:16:27;101638.50;;;8.51;46.52
31483;BME280;18103;52.246;8.052;2023-03-01T11:19:06;101633.16;;;8.33;45.20
31483;BME280;18103;52.246;8.052;2023-03-01T11:24:12;101635.13;;;8.11;46.09
31483;BME280;18103;52.246;8.052;2023-03-01T11:26:42;101636.75;;;8.13;46.81
31483;BME280;18103;52.246;8.052;2023-03-01T11:29:25;101635.75;;;8.89;47.50
31483;BME280;18103;52.246;8.052;2023-03-01T11:31:55;101623.41;;;8.54;46.92
31483;BME280;18103;52.246;8.052;2023-03-01T11:34:32;101625.19;;;8.89;46.91
31483;BME280;18103;52.246;8.052;2023-03-01T11:37:03;101620.66;;;8.93;46.80
31483;BME280;18103;52.246;8.052;2023-03-01T11:39:59;101619.25;;;8.68;47.96
31483;BME280;18103;52.246;8.052;2023-03-01T11:45:17;101609.72;;;9.99;46.49
31483;BME280;18103;52.246;8.052;2023-03-01T11:48:07;101619.56;;;9.64;45.59
31483;BME280;18103;52.246;8.052;2023-03-01T11:50:40;101604.06;;;9.08;44.96
31483;BME280;18103;52.246;8.052;2023-03-01T11:53:20;101601.16;;;9.13;43.58
31483;BME280;18103;52.246;8.052;2023-03-01T12:05:00;101573.78;;;8.64;42.33
31483;BME280;18103;52.246;8.052;2023-03-01T12:07:30;101573.84;;;8.98;44.48
31483;BME280;18103;52.246;8.052;2023-03-01T12:10:21;101570.94;;;8.32;42.48
31483;BME280;18103;52.246;8.052;2023-03-01T12:16:09;101563.19;;;9.17;43.52
31483;BME280;18103;52.246;8.052;2023-03-01T12:19:29;101562.59;;;9.12;42.81
31483;BME280;18103;52.246;8.052;2023-03-01T12:29:36;101550.66;;;9.22;43.97
31483;BME280;18103;52.246;8.052;2023-03-01T12:35:22;101538.66;;;9.32;42.77
31483;BME280;18103;52.246;8.052;2023-03-01T12:43:58;101526.19;;;9.52;43.19
31483;BME280;18103;52.246;8.052;2023-03-01T12:49:18;101524.78;;;10.08;42.90
31483;BME280;18103;52.246;8.052;2023-03-01T12:52:00;101520.66;;;10.35;43.54
31483;BME280;18103;52.246;8.052;2023-03-01T12:54:30;101515.63;;;10.30;42.96
31483;BME280;18103;52.246;8.052;2023-03-01T12:57:02;101520.75;;;9.87;41.22
31483;BME280;18103;52.246;8.052;2023-03-01T12:59:38;101510.94;;;10.05;41.32
31483;BME280;18103;52.246;8.052;2023-03-01T13:05:56;101501.69;;;9.98;41.38
31483;BME280;18103;52.246;8.052;2023-03-01T13:08:07;101498.72;;;10.49;42.20
31483;BME280;18103;52.246;8.052;2023-03-01T13:10:47;101496.16;;;10.77;40.66
31483;BME280;18103;52.246;8.052;2023-03-01T13:13:22;101492.25;;;10.54;40.53
31483;BME280;18103;52.246;8.052;2023-03-01T13:15:49;101483.38;;;10.25;40.07
31483;BME280;18103;52.246;8.052;2023-03-01T13:26:10;101486.13;;;10.68;41.32
31483;BME280;18103;52.246;8.052;2023-03-01T13:33:56;101476.91;;;11.04;40.61
31483;BME280;18103;52.246;8.052;2023-03-01T13:44:30;101466.03;;;11.09;40.85
31483;BME280;18103;52.246;8.052;2023-03-01T13:49:47;101460.28;;;10.59;40.18
31483;BME280;18103;52.246;8.052;2023-03-01T13:52:39;101461.44;;;10.69;40.24
31483;BME280;18103;52.246;8.052;2023-03-01T13:55:42;101458.50;;;11.03;40.14
31483;BME280;18103;52.246;8.052;2023-03-01T13:58:31;101449.44;;;10.92;42.15
31483;BME280;18103;52.246;8.052;2023-03-01T14:01:05;101440.03;;;10.59;39.49
31483;BME280;18103;52.246;8.052;2023-03-01T14:03:33;101445.19;;;10.75;41.43
31483;BME280;18103;52.246;8.052;2023-03-01T14:06:09;101445.56;;;10.84;40.14
31483;BME280;18103;52.246;8.052;2023-03-01T14:08:37;101450.00;;;10.54;39.28
31483;BME280;18103;52.246;8.052;2023-03-01T14:19:43;101433.91;;;10.28;40.00
31483;BME280;18103;52.246;8.052;2023-03-01T14:27:51;101416.41;;;9.97;40.59
31483;BME280;18103;52.246;8.052;2023-03-01T14:30:23;101431.28;;;9.98;40.87
31483;BME280;18103;52.246;8.052;2023-03-01T14:36:12;101420.63;;;9.69;40.17
31483;BME280;18103;52.246;8.052;2023-03-01T14:38:46;101412.59;;;9.56;40.38
31483;BME280;18103;52.246;8.052;2023-03-01T14:43:50;101414.25;;;9.43;41.26
31483;BME280;18103;52.246;8.052;2023-03-01T14:48:44;101393.69;;;9.18;42.25
31483;BME280;18103;52.246;8.052;2023-03-01T14:51:11;101387.66;;;9.00;43.13
31483;BME280;18103;52.246;8.052;2023-03-01T14:53:37;101395.56;;;9.00;42.61
31483;BME280;18103;52.246;8.052;2023-03-01T14:56:03;101383.66;;;8.93;42.82
31483;BME280;18103;52.246;8.052;2023-03-01T14:58:28;101380.69;;;8.83;42.89
31483;BME280;18103;52.246;8.052;2023-03-01T15:01:02;101382.72;;;8.78;43.07